Terminal Aerodrome Forecast
Issued by NWS

Home | Current Version | Previous Version | Text Only | Print | Product List | Glossary On
Versions: 1 2 3 4 5 6 7 8 9 10 11 12 13 14 15
000
FTUS44 KBMX 162341
TAFANB
TAF
KANB 162341Z 1700/1724 18005KT P6SM BKN250
     FM170500 09003KT P6SM OVC030
     FM170900 17006KT 4SM BR OVC015
     FM171300 18006KT 4SM BR OVC007
     FM171500 20007KT P6SM OVC010=

USA.gov is the U.S. government's official web portal to all federal, state and local government web resources and services.